sensor_id;sensor_type;location;lat;lon;timestamp;P1;durP1;ratioP1;P2;durP2;ratioP2
18206;SDS011;9229;52.354;20.886;2023-02-26T00:03:49;3.25;;;3.05;;
18206;SDS011;9229;52.354;20.886;2023-02-26T00:08:52;3.35;;;3.15;;
18206;SDS011;9229;52.354;20.886;2023-02-26T00:13:56;5.20;;;2.95;;
18206;SDS011;9229;52.354;20.886;2023-02-26T00:18:59;2.83;;;2.72;;
18206;SDS011;9229;52.354;20.886;2023-02-26T00:24:06;2.78;;;2.67;;
18206;SDS011;9229;52.354;20.886;2023-02-26T00:29:10;3.38;;;3.17;;
18206;SDS011;9229;52.354;20.886;2023-02-26T00:34:13;2.85;;;2.72;;
18206;SDS011;9229;52.354;20.886;2023-02-26T00:39:19;3.83;;;3.20;;
18206;SDS011;9229;52.354;20.886;2023-02-26T00:44:36;3.13;;;2.95;;
18206;SDS011;9229;52.354;20.886;2023-02-26T00:49:43;3.05;;;2.88;;
18206;SDS011;9229;52.354;20.886;2023-02-26T00:54:53;2.90;;;2.80;;
18206;SDS011;9229;52.354;20.886;2023-02-26T00:59:56;2.95;;;2.75;;
18206;SDS011;9229;52.354;20.886;2023-02-26T01:04:58;3.05;;;2.85;;
18206;SDS011;9229;52.354;20.886;2023-02-26T01:10:01;2.65;;;2.50;;
18206;SDS011;9229;52.354;20.886;2023-02-26T01:15:06;2.70;;;2.60;;
18206;SDS011;9229;52.354;20.886;2023-02-26T01:20:11;3.00;;;2.83;;
18206;SDS011;9229;52.354;20.886;2023-02-26T01:25:19;3.25;;;3.05;;
18206;SDS011;9229;52.354;20.886;2023-02-26T01:30:27;3.38;;;3.10;;
18206;SDS011;9229;52.354;20.886;2023-02-26T01:35:36;3.78;;;2.97;;
18206;SDS011;9229;52.354;20.886;2023-02-26T01:46:24;3.53;;;3.25;;
18206;SDS011;9229;52.354;20.886;2023-02-26T01:51:47;3.63;;;3.42;;
18206;SDS011;9229;52.354;20.886;2023-02-26T01:56:51;4.05;;;3.55;;
18206;SDS011;9229;52.354;20.886;2023-02-26T02:02:01;3.08;;;2.85;;
18206;SDS011;9229;52.354;20.886;2023-02-26T02:07:06;3.42;;;3.22;;
18206;SDS011;9229;52.354;20.886;2023-02-26T02:12:13;3.35;;;3.17;;
18206;SDS011;9229;52.354;20.886;2023-02-26T02:17:30;3.45;;;3.20;;
18206;SDS011;9229;52.354;20.886;2023-02-26T02:22:45;3.30;;;3.00;;
18206;SDS011;9229;52.354;20.886;2023-02-26T02:27:57;3.10;;;2.90;;
18206;SDS011;9229;52.354;20.886;2023-02-26T02:33:09;3.17;;;3.00;;
18206;SDS011;9229;52.354;20.886;2023-02-26T02:38:15;3.22;;;3.08;;
18206;SDS011;9229;52.354;20.886;2023-02-26T02:43:22;2.80;;;2.70;;
18206;SDS011;9229;52.354;20.886;2023-02-26T02:48:30;3.20;;;3.00;;
18206;SDS011;9229;52.354;20.886;2023-02-26T02:53:37;5.10;;;3.20;;
18206;SDS011;9229;52.354;20.886;2023-02-26T02:58:43;3.25;;;2.95;;
18206;SDS011;9229;52.354;20.886;2023-02-26T03:03:56;3.20;;;3.00;;
18206;SDS011;9229;52.354;20.886;2023-02-26T03:09:05;2.90;;;2.70;;
18206;SDS011;9229;52.354;20.886;2023-02-26T03:14:08;3.28;;;3.08;;
18206;SDS011;9229;52.354;20.886;2023-02-26T03:19:17;3.22;;;3.03;;
18206;SDS011;9229;52.354;20.886;2023-02-26T03:24:28;3.80;;;3.50;;
18206;SDS011;9229;52.354;20.886;2023-02-26T03:29:37;3.13;;;2.90;;
18206;SDS011;9229;52.354;20.886;2023-02-26T03:34:46;3.78;;;3.22;;
18206;SDS011;9229;52.354;20.886;2023-02-26T03:39:54;3.33;;;3.13;;
18206;SDS011;9229;52.354;20.886;2023-02-26T03:45:01;3.42;;;2.97;;
18206;SDS011;9229;52.354;20.886;2023-02-26T03:50:12;3.28;;;3.08;;
18206;SDS011;9229;52.354;20.886;2023-02-26T03:55:29;3.30;;;3.10;;
18206;SDS011;9229;52.354;20.886;2023-02-26T04:00:46;4.63;;;2.72;;
18206;SDS011;9229;52.354;20.886;2023-02-26T04:05:55;3.92;;;3.38;;
18206;SDS011;9229;52.354;20.886;2023-02-26T04:10:59;3.78;;;3.55;;
18206;SDS011;9229;52.354;20.886;2023-02-26T04:16:06;4.05;;;3.30;;
18206;SDS011;9229;52.354;20.886;2023-02-26T04:21:11;4.45;;;3.80;;
18206;SDS011;9229;52.354;20.886;2023-02-26T04:26:14;3.58;;;3.28;;
18206;SDS011;9229;52.354;20.886;2023-02-26T04:31:17;4.13;;;3.20;;
18206;SDS011;9229;52.354;20.886;2023-02-26T04:36:21;2.70;;;2.60;;
18206;SDS011;9229;52.354;20.886;2023-02-26T04:41:25;2.80;;;2.70;;
18206;SDS011;9229;52.354;20.886;2023-02-26T04:46:29;2.85;;;2.65;;
18206;SDS011;9229;52.354;20.886;2023-02-26T04:51:33;2.67;;;2.58;;
18206;SDS011;9229;52.354;20.886;2023-02-26T04:56:35;2.50;;;2.40;;
18206;SDS011;9229;52.354;20.886;2023-02-26T05:01:38;4.38;;;2.30;;
18206;SDS011;9229;52.354;20.886;2023-02-26T05:06:43;2.83;;;2.42;;
18206;SDS011;9229;52.354;20.886;2023-02-26T05:11:47;2.47;;;2.38;;
18206;SDS011;9229;52.354;20.886;2023-02-26T05:16:50;2.22;;;2.22;;
18206;SDS011;9229;52.354;20.886;2023-02-26T05:21:56;2.22;;;2.08;;
18206;SDS011;9229;52.354;20.886;2023-02-26T05:26:59;2.65;;;2.45;;
18206;SDS011;9229;52.354;20.886;2023-02-26T05:32:03;2.42;;;2.28;;
18206;SDS011;9229;52.354;20.886;2023-02-26T05:37:18;2.10;;;2.00;;
18206;SDS011;9229;52.354;20.886;2023-02-26T05:42:20;2.20;;;2.10;;
18206;SDS011;9229;52.354;20.886;2023-02-26T05:47:22;2.15;;;2.05;;
18206;SDS011;9229;52.354;20.886;2023-02-26T05:52:26;2.13;;;2.13;;
18206;SDS011;9229;52.354;20.886;2023-02-26T05:57:28;1.90;;;1.80;;
18206;SDS011;9229;52.354;20.886;2023-02-26T06:02:30;2.38;;;2.28;;
18206;SDS011;9229;52.354;20.886;2023-02-26T06:07:33;1.83;;;1.80;;
18206;SDS011;9229;52.354;20.886;2023-02-26T06:12:35;2.35;;;2.15;;
18206;SDS011;9229;52.354;20.886;2023-02-26T06:17:38;2.10;;;2.00;;
18206;SDS011;9229;52.354;20.886;2023-02-26T06:22:42;2.45;;;2.15;;
18206;SDS011;9229;52.354;20.886;2023-02-26T06:27:44;2.10;;;2.00;;
18206;SDS011;9229;52.354;20.886;2023-02-26T06:32:46;2.20;;;2.20;;
18206;SDS011;9229;52.354;20.886;2023-02-26T06:37:50;2.50;;;2.40;;
18206;SDS011;9229;52.354;20.886;2023-02-26T06:42:52;2.33;;;2.33;;
18206;SDS011;9229;52.354;20.886;2023-02-26T06:47:53;3.83;;;2.20;;
18206;SDS011;9229;52.354;20.886;2023-02-26T06:52:58;2.05;;;2.05;;
18206;SDS011;9229;52.354;20.886;2023-02-26T06:58:00;1.83;;;1.83;;
18206;SDS011;9229;52.354;20.886;2023-02-26T07:03:07;2.40;;;2.30;;
18206;SDS011;9229;52.354;20.886;2023-02-26T07:08:13;3.53;;;2.40;;
18206;SDS011;9229;52.354;20.886;2023-02-26T07:13:18;2.20;;;2.20;;
18206;SDS011;9229;52.354;20.886;2023-02-26T07:18:23;2.47;;;2.38;;
18206;SDS011;9229;52.354;20.886;2023-02-26T07:23:26;2.05;;;1.95;;
18206;SDS011;9229;52.354;20.886;2023-02-26T07:28:29;2.20;;;2.10;;
18206;SDS011;9229;52.354;20.886;2023-02-26T07:33:32;2.35;;;2.22;;
18206;SDS011;9229;52.354;20.886;2023-02-26T07:38:36;2.45;;;2.38;;
18206;SDS011;9229;52.354;20.886;2023-02-26T07:43:39;2.45;;;2.33;;
18206;SDS011;9229;52.354;20.886;2023-02-26T07:48:42;2.25;;;2.17;;
18206;SDS011;9229;52.354;20.886;2023-02-26T07:53:48;2.00;;;1.90;;
18206;SDS011;9229;52.354;20.886;2023-02-26T07:58:51;2.80;;;2.60;;
18206;SDS011;9229;52.354;20.886;2023-02-26T08:03:54;2.95;;;2.80;;
18206;SDS011;9229;52.354;20.886;2023-02-26T08:08:58;3.53;;;2.10;;
18206;SDS011;9229;52.354;20.886;2023-02-26T08:14:01;2.00;;;2.00;;
18206;SDS011;9229;52.354;20.886;2023-02-26T08:19:03;2.58;;;2.40;;
18206;SDS011;9229;52.354;20.886;2023-02-26T08:24:09;2.30;;;2.30;;
18206;SDS011;9229;52.354;20.886;2023-02-26T08:29:11;1.92;;;1.92;;
18206;SDS011;9229;52.354;20.886;2023-02-26T08:34:14;2.10;;;2.08;;
18206;SDS011;9229;52.354;20.886;2023-02-26T08:39:24;2.13;;;1.95;;
18206;SDS011;9229;52.354;20.886;2023-02-26T08:44:26;1.90;;;1.80;;
18206;SDS011;9229;52.354;20.886;2023-02-26T08:49:28;3.22;;;2.13;;
18206;SDS011;9229;52.354;20.886;2023-02-26T08:54:32;2.72;;;2.15;;
18206;SDS011;9229;52.354;20.886;2023-02-26T08:59:34;1.88;;;1.88;;
18206;SDS011;9229;52.354;20.886;2023-02-26T09:04:36;2.05;;;2.00;;
18206;SDS011;9229;52.354;20.886;2023-02-26T09:09:41;2.28;;;2.17;;
18206;SDS011;9229;52.354;20.886;2023-02-26T09:14:44;2.72;;;2.63;;
18206;SDS011;9229;52.354;20.886;2023-02-26T09:19:51;2.90;;;2.58;;
18206;SDS011;9229;52.354;20.886;2023-02-26T09:24:57;2.28;;;2.17;;
18206;SDS011;9229;52.354;20.886;2023-02-26T09:29:59;2.90;;;2.70;;
18206;SDS011;9229;52.354;20.886;2023-02-26T09:35:02;2.42;;;2.33;;
18206;SDS011;9229;52.354;20.886;2023-02-26T09:40:09;4.20;;;2.55;;
18206;SDS011;9229;52.354;20.886;2023-02-26T09:45:24;2.70;;;2.50;;
18206;SDS011;9229;52.354;20.886;2023-02-26T09:50:32;2.38;;;2.28;;
18206;SDS011;9229;52.354;20.886;2023-02-26T09:55:42;2.60;;;2.40;;
18206;SDS011;9229;52.354;20.886;2023-02-26T10:00:48;2.35;;;2.25;;
18206;SDS011;9229;52.354;20.886;2023-02-26T10:06:10;2.47;;;2.38;;
18206;SDS011;9229;52.354;20.886;2023-02-26T10:11:37;3.08;;;2.88;;
18206;SDS011;9229;52.354;20.886;2023-02-26T10:16:49;2.92;;;2.72;;
18206;SDS011;9229;52.354;20.886;2023-02-26T10:21:56;2.53;;;2.42;;
18206;SDS011;9229;52.354;20.886;2023-02-26T10:27:04;3.05;;;2.85;;
18206;SDS011;9229;52.354;20.886;2023-02-26T10:32:11;2.92;;;2.72;;
18206;SDS011;9229;52.354;20.886;2023-02-26T10:37:22;2.33;;;2.20;;
18206;SDS011;9229;52.354;20.886;2023-02-26T10:42:37;2.13;;;2.03;;
18206;SDS011;9229;52.354;20.886;2023-02-26T10:47:42;2.00;;;2.00;;
18206;SDS011;9229;52.354;20.886;2023-02-26T10:52:50;1.70;;;1.70;;
18206;SDS011;9229;52.354;20.886;2023-02-26T10:57:59;2.13;;;2.08;;
18206;SDS011;9229;52.354;20.886;2023-02-26T11:03:04;2.30;;;2.10;;
18206;SDS011;9229;52.354;20.886;2023-02-26T11:08:15;2.22;;;2.10;;
18206;SDS011;9229;52.354;20.886;2023-02-26T11:13:21;2.00;;;1.92;;
18206;SDS011;9229;52.354;20.886;2023-02-26T11:18:24;1.90;;;1.90;;
18206;SDS011;9229;52.354;20.886;2023-02-26T11:23:29;1.98;;;1.88;;
18206;SDS011;9229;52.354;20.886;2023-02-26T11:28:36;2.35;;;2.17;;
18206;SDS011;9229;52.354;20.886;2023-02-26T11:33:47;3.60;;;2.53;;
18206;SDS011;9229;52.354;20.886;2023-02-26T11:38:51;2.63;;;2.53;;
18206;SDS011;9229;52.354;20.886;2023-02-26T11:43:59;2.80;;;2.05;;
18206;SDS011;9229;52.354;20.886;2023-02-26T11:49:03;2.45;;;2.30;;
18206;SDS011;9229;52.354;20.886;2023-02-26T11:54:10;2.33;;;2.22;;
18206;SDS011;9229;52.354;20.886;2023-02-26T11:59:25;2.17;;;2.08;;
18206;SDS011;9229;52.354;20.886;2023-02-26T12:04:31;2.53;;;2.35;;
18206;SDS011;9229;52.354;20.886;2023-02-26T12:09:34;2.38;;;2.28;;
18206;SDS011;9229;52.354;20.886;2023-02-26T12:20:14;2.97;;;2.50;;
18206;SDS011;9229;52.354;20.886;2023-02-26T12:25:24;2.08;;;1.95;;
18206;SDS011;9229;52.354;20.886;2023-02-26T12:30:41;2.88;;;2.10;;
18206;SDS011;9229;52.354;20.886;2023-02-26T12:36:03;2.22;;;2.13;;
18206;SDS011;9229;52.354;20.886;2023-02-26T12:41:24;1.88;;;1.80;;
18206;SDS011;9229;52.354;20.886;2023-02-26T12:46:42;2.03;;;1.92;;
18206;SDS011;9229;52.354;20.886;2023-02-26T12:51:59;1.50;;;1.50;;
18206;SDS011;9229;52.354;20.886;2023-02-26T12:57:22;3.95;;;1.88;;
18206;SDS011;9229;52.354;20.886;2023-02-26T13:08:38;5.93;;;1.88;;
18206;SDS011;9229;52.354;20.886;2023-02-26T13:13:52;1.88;;;1.58;;
18206;SDS011;9229;52.354;20.886;2023-02-26T13:19:07;2.45;;;2.35;;
18206;SDS011;9229;52.354;20.886;2023-02-26T13:24:29;2.22;;;2.08;;
18206;SDS011;9229;52.354;20.886;2023-02-26T13:29:43;1.77;;;1.63;;
18206;SDS011;9229;52.354;20.886;2023-02-26T13:34:49;2.70;;;2.05;;
18206;SDS011;9229;52.354;20.886;2023-02-26T13:40:10;2.13;;;2.03;;
18206;SDS011;9229;52.354;20.886;2023-02-26T13:45:36;2.05;;;1.95;;
18206;SDS011;9229;52.354;20.886;2023-02-26T13:50:51;2.85;;;1.73;;
18206;SDS011;9229;52.354;20.886;2023-02-26T13:56:12;1.73;;;1.63;;
18206;SDS011;9229;52.354;20.886;2023-02-26T14:01:16;5.60;;;2.50;;
18206;SDS011;9229;52.354;20.886;2023-02-26T14:06:23;2.35;;;1.98;;
18206;SDS011;9229;52.354;20.886;2023-02-26T14:11:45;2.17;;;2.08;;
18206;SDS011;9229;52.354;20.886;2023-02-26T14:22:36;2.53;;;2.33;;
18206;SDS011;9229;52.354;20.886;2023-02-26T14:27:44;1.83;;;1.77;;
18206;SDS011;9229;52.354;20.886;2023-02-26T14:32:49;2.72;;;1.70;;
18206;SDS011;9229;52.354;20.886;2023-02-26T14:37:56;1.88;;;1.77;;
18206;SDS011;9229;52.354;20.886;2023-02-26T14:43:04;1.92;;;1.88;;
18206;SDS011;9229;52.354;20.886;2023-02-26T14:48:11;2.03;;;1.92;;
18206;SDS011;9229;52.354;20.886;2023-02-26T14:53:32;3.42;;;2.30;;
18206;SDS011;9229;52.354;20.886;2023-02-26T14:58:53;3.72;;;2.17;;
18206;SDS011;9229;52.354;20.886;2023-02-26T15:04:19;5.25;;;2.40;;
18206;SDS011;9229;52.354;20.886;2023-02-26T15:09:37;2.22;;;2.03;;
18206;SDS011;9229;52.354;20.886;2023-02-26T15:20:38;2.25;;;2.20;;
18206;SDS011;9229;52.354;20.886;2023-02-26T15:25:50;2.08;;;1.98;;
18206;SDS011;9229;52.354;20.886;2023-02-26T15:30:57;3.83;;;2.28;;
18206;SDS011;9229;52.354;20.886;2023-02-26T15:36:05;2.97;;;2.60;;
18206;SDS011;9229;52.354;20.886;2023-02-26T15:41:10;4.25;;;2.50;;
18206;SDS011;9229;52.354;20.886;2023-02-26T15:46:12;5.28;;;3.38;;
18206;SDS011;9229;52.354;20.886;2023-02-26T15:51:17;4.82;;;3.70;;
18206;SDS011;9229;52.354;20.886;2023-02-26T16:01:50;15.48;;;6.68;;
18206;SDS011;9229;52.354;20.886;2023-02-26T16:06:54;16.27;;;7.75;;
18206;SDS011;9229;52.354;20.886;2023-02-26T16:11:59;27.80;;;9.45;;
18206;SDS011;9229;52.354;20.886;2023-02-26T16:17:06;10.07;;;5.30;;
18206;SDS011;9229;52.354;20.886;2023-02-26T16:22:17;4.40;;;4.00;;
18206;SDS011;9229;52.354;20.886;2023-02-26T16:27:23;10.80;;;5.18;;
18206;SDS011;9229;52.354;20.886;2023-02-26T16:32:28;16.08;;;8.57;;
18206;SDS011;9229;52.354;20.886;2023-02-26T16:37:34;21.80;;;9.98;;
18206;SDS011;9229;52.354;20.886;2023-02-26T16:42:45;15.85;;;8.98;;
18206;SDS011;9229;52.354;20.886;2023-02-26T16:48:10;19.15;;;8.18;;
18206;SDS011;9229;52.354;20.886;2023-02-26T16:53:18;23.83;;;10.85;;
18206;SDS011;9229;52.354;20.886;2023-02-26T16:58:23;20.15;;;9.80;;
18206;SDS011;9229;52.354;20.886;2023-02-26T17:03:25;16.33;;;7.32;;
18206;SDS011;9229;52.354;20.886;2023-02-26T17:08:33;12.60;;;7.03;;
18206;SDS011;9229;52.354;20.886;2023-02-26T17:13:37;11.27;;;5.40;;
18206;SDS011;9229;52.354;20.886;2023-02-26T17:18:39;7.63;;;4.55;;
18206;SDS011;9229;52.354;20.886;2023-02-26T17:23:43;6.05;;;4.05;;
18206;SDS011;9229;52.354;20.886;2023-02-26T17:28:45;7.72;;;3.75;;
18206;SDS011;9229;52.354;20.886;2023-02-26T17:33:48;4.60;;;4.20;;
18206;SDS011;9229;52.354;20.886;2023-02-26T17:38:54;18.08;;;5.25;;
18206;SDS011;9229;52.354;20.886;2023-02-26T17:43:58;8.38;;;4.03;;
18206;SDS011;9229;52.354;20.886;2023-02-26T17:49:01;8.95;;;4.25;;
18206;SDS011;9229;52.354;20.886;2023-02-26T17:54:45;4.60;;;4.15;;
18206;SDS011;9229;52.354;20.886;2023-02-26T18:00:11;10.00;;;4.25;;
18206;SDS011;9229;52.354;20.886;2023-02-26T18:05:17;8.57;;;5.00;;
18206;SDS011;9229;52.354;20.886;2023-02-26T18:10:25;8.80;;;4.47;;
18206;SDS011;9229;52.354;20.886;2023-02-26T18:15:27;4.90;;;4.15;;
18206;SDS011;9229;52.354;20.886;2023-02-26T18:20:29;6.93;;;3.50;;
18206;SDS011;9229;52.354;20.886;2023-02-26T18:25:34;3.65;;;3.30;;
18206;SDS011;9229;52.354;20.886;2023-02-26T18:30:38;7.85;;;3.38;;
18206;SDS011;9229;52.354;20.886;2023-02-26T18:35:43;4.75;;;2.97;;
18206;SDS011;9229;52.354;20.886;2023-02-26T18:40:48;6.82;;;2.53;;
18206;SDS011;9229;52.354;20.886;2023-02-26T18:45:51;4.47;;;2.63;;
18206;SDS011;9229;52.354;20.886;2023-02-26T18:50:53;2.47;;;2.28;;
18206;SDS011;9229;52.354;20.886;2023-02-26T18:56:06;5.43;;;3.45;;
18206;SDS011;9229;52.354;20.886;2023-02-26T19:01:10;3.97;;;2.53;;
18206;SDS011;9229;52.354;20.886;2023-02-26T19:06:12;2.92;;;2.58;;
18206;SDS011;9229;52.354;20.886;2023-02-26T19:11:15;2.30;;;2.10;;
18206;SDS011;9229;52.354;20.886;2023-02-26T19:16:17;2.88;;;2.72;;
18206;SDS011;9229;52.354;20.886;2023-02-26T19:21:21;2.78;;;2.58;;
18206;SDS011;9229;52.354;20.886;2023-02-26T19:26:27;2.60;;;1.90;;
18206;SDS011;9229;52.354;20.886;2023-02-26T19:31:32;5.75;;;3.65;;
18206;SDS011;9229;52.354;20.886;2023-02-26T19:36:35;2.63;;;2.28;;
18206;SDS011;9229;52.354;20.886;2023-02-26T19:41:43;5.18;;;2.20;;
18206;SDS011;9229;52.354;20.886;2023-02-26T19:46:48;2.10;;;2.00;;
18206;SDS011;9229;52.354;20.886;2023-02-26T19:51:51;2.70;;;2.50;;
18206;SDS011;9229;52.354;20.886;2023-02-26T19:56:55;2.25;;;2.03;;
18206;SDS011;9229;52.354;20.886;2023-02-26T20:01:59;3.33;;;2.03;;
18206;SDS011;9229;52.354;20.886;2023-02-26T20:07:05;2.72;;;2.63;;
18206;SDS011;9229;52.354;20.886;2023-02-26T20:12:54;2.47;;;2.30;;
18206;SDS011;9229;52.354;20.886;2023-02-26T20:17:57;2.90;;;2.70;;
18206;SDS011;9229;52.354;20.886;2023-02-26T20:22:59;6.97;;;3.05;;
18206;SDS011;9229;52.354;20.886;2023-02-26T20:28:03;9.18;;;4.25;;
18206;SDS011;9229;52.354;20.886;2023-02-26T20:33:05;10.60;;;4.50;;
18206;SDS011;9229;52.354;20.886;2023-02-26T20:38:08;5.95;;;4.50;;
18206;SDS011;9229;52.354;20.886;2023-02-26T20:43:12;10.88;;;5.35;;
18206;SDS011;9229;52.354;20.886;2023-02-26T20:48:14;9.57;;;4.07;;
18206;SDS011;9229;52.354;20.886;2023-02-26T20:53:16;6.95;;;3.25;;
18206;SDS011;9229;52.354;20.886;2023-02-26T20:58:20;8.43;;;3.60;;
18206;SDS011;9229;52.354;20.886;2023-02-26T21:03:25;5.32;;;3.33;;
18206;SDS011;9229;52.354;20.886;2023-02-26T21:08:27;3.38;;;3.17;;
18206;SDS011;9229;52.354;20.886;2023-02-26T21:13:32;3.95;;;3.47;;
18206;SDS011;9229;52.354;20.886;2023-02-26T21:18:40;10.30;;;4.13;;
18206;SDS011;9229;52.354;20.886;2023-02-26T21:23:42;7.43;;;3.72;;
18206;SDS011;9229;52.354;20.886;2023-02-26T21:28:45;9.30;;;4.05;;
18206;SDS011;9229;52.354;20.886;2023-02-26T21:33:48;5.55;;;3.63;;
18206;SDS011;9229;52.354;20.886;2023-02-26T21:38:50;5.03;;;3.47;;
18206;SDS011;9229;52.354;20.886;2023-02-26T21:43:54;6.53;;;3.17;;
18206;SDS011;9229;52.354;20.886;2023-02-26T21:48:56;5.07;;;3.67;;
18206;SDS011;9229;52.354;20.886;2023-02-26T21:54:00;9.45;;;3.78;;
18206;SDS011;9229;52.354;20.886;2023-02-26T21:59:19;4.68;;;4.07;;
18206;SDS011;9229;52.354;20.886;2023-02-26T22:04:23;4.78;;;3.85;;
18206;SDS011;9229;52.354;20.886;2023-02-26T22:09:30;6.20;;;3.60;;
18206;SDS011;9229;52.354;20.886;2023-02-26T22:14:33;6.38;;;3.20;;
18206;SDS011;9229;52.354;20.886;2023-02-26T22:19:36;6.43;;;2.83;;
18206;SDS011;9229;52.354;20.886;2023-02-26T22:24:42;5.65;;;4.47;;
18206;SDS011;9229;52.354;20.886;2023-02-26T22:29:46;3.65;;;3.28;;
18206;SDS011;9229;52.354;20.886;2023-02-26T22:34:50;4.25;;;2.55;;
18206;SDS011;9229;52.354;20.886;2023-02-26T22:39:55;3.22;;;2.35;;
18206;SDS011;9229;52.354;20.886;2023-02-26T22:44:58;2.90;;;2.70;;
18206;SDS011;9229;52.354;20.886;2023-02-26T22:50:01;6.13;;;2.70;;
18206;SDS011;9229;52.354;20.886;2023-02-26T22:55:05;2.97;;;2.70;;
18206;SDS011;9229;52.354;20.886;2023-02-26T23:00:14;3.88;;;3.38;;
18206;SDS011;9229;52.354;20.886;2023-02-26T23:05:18;4.03;;;2.90;;
18206;SDS011;9229;52.354;20.886;2023-02-26T23:10:20;4.70;;;3.10;;
18206;SDS011;9229;52.354;20.886;2023-02-26T23:15:24;7.30;;;3.97;;
18206;SDS011;9229;52.354;20.886;2023-02-26T23:20:27;4.90;;;4.00;;
18206;SDS011;9229;52.354;20.886;2023-02-26T23:25:29;5.72;;;3.75;;
18206;SDS011;9229;52.354;20.886;2023-02-26T23:30:33;4.32;;;3.72;;
18206;SDS011;9229;52.354;20.886;2023-02-26T23:35:36;9.50;;;4.00;;
18206;SDS011;9229;52.354;20.886;2023-02-26T23:40:39;7.05;;;4.28;;
18206;SDS011;9229;52.354;20.886;2023-02-26T23:45:42;4.97;;;3.95;;
18206;SDS011;9229;52.354;20.886;2023-02-26T23:50:46;5.53;;;4.40;;
18206;SDS011;9229;52.354;20.886;2023-02-26T23:55:48;8.35;;;4.95;;
